createdAt,value
2023-05-09T00:01:43.866Z,1.35
2023-05-09T00:04:11.316Z,1.17
2023-05-09T00:06:38.454Z,1.25
2023-05-09T00:09:05.570Z,3.13
2023-05-09T00:11:32.738Z,1.85
2023-05-09T00:13:59.806Z,1.85
2023-05-09T00:16:26.997Z,2.92
2023-05-09T00:18:54.454Z,1.75
2023-05-09T00:21:21.633Z,1.40
2023-05-09T00:23:48.769Z,2.90
2023-05-09T00:26:16.283Z,2.80
2023-05-09T00:28:44.368Z,1.73
2023-05-09T00:31:11.382Z,2.08
2023-05-09T00:33:38.568Z,3.28
2023-05-09T00:36:05.909Z,1.95
2023-05-09T00:38:33.041Z,2.40
2023-05-09T00:41:00.136Z,1.83
2023-05-09T00:43:27.321Z,1.92
2023-05-09T00:45:54.430Z,3.38
2023-05-09T00:48:22.433Z,2.05
2023-05-09T00:50:52.997Z,3.33
2023-05-09T00:53:20.810Z,3.55
2023-05-09T00:55:48.784Z,2.92
2023-05-09T00:58:16.916Z,5.45
2023-05-09T01:00:44.006Z,2.30
2023-05-09T01:03:11.572Z,2.08
2023-05-09T01:05:57.261Z,2.20
2023-05-09T01:08:34.582Z,3.75
2023-05-09T01:11:10.817Z,2.42
2023-05-09T01:13:46.942Z,2.35
2023-05-09T01:16:26.590Z,3.10
2023-05-09T01:19:20.077Z,1.92
2023-05-09T01:21:49.280Z,2.75
2023-05-09T01:24:34.730Z,3.13
2023-05-09T01:27:14.079Z,2.15
2023-05-09T01:30:03.316Z,1.83
2023-05-09T01:32:34.152Z,2.17
2023-05-09T01:35:04.619Z,1.65
2023-05-09T01:37:35.037Z,2.40
2023-05-09T01:40:10.537Z,1.65
2023-05-09T01:42:43.536Z,2.70
2023-05-09T01:45:12.751Z,2.10
2023-05-09T01:47:41.745Z,2.13
2023-05-09T01:50:12.247Z,1.80
2023-05-09T01:52:41.343Z,2.58
2023-05-09T01:55:09.627Z,3.40
2023-05-09T01:57:38.680Z,2.10
2023-05-09T02:00:10.779Z,2.17
2023-05-09T02:02:41.699Z,2.15
2023-05-09T02:05:12.051Z,2.95
2023-05-09T02:07:41.852Z,2.28
2023-05-09T02:10:11.137Z,2.47
2023-05-09T02:12:38.931Z,3.42
2023-05-09T02:15:07.068Z,2.47
2023-05-09T02:17:35.166Z,4.70
2023-05-09T02:20:02.208Z,5.13
2023-05-09T02:22:31.267Z,3.45
2023-05-09T02:24:58.494Z,3.10
2023-05-09T02:27:27.147Z,4.80
2023-05-09T02:29:57.679Z,4.53
2023-05-09T02:32:29.311Z,4.72
2023-05-09T02:34:58.910Z,6.20
2023-05-09T02:37:27.058Z,4.22
2023-05-09T02:39:55.396Z,5.25
2023-05-09T02:42:30.159Z,6.20
2023-05-09T02:44:57.202Z,8.07
2023-05-09T02:47:24.378Z,6.55
2023-05-09T02:49:51.412Z,6.07
2023-05-09T02:52:18.626Z,5.35
2023-05-09T02:54:45.888Z,7.18
2023-05-09T02:57:13.002Z,6.13
2023-05-09T02:59:40.169Z,6.55
2023-05-09T03:02:07.320Z,6.00
2023-05-09T03:04:34.543Z,6.32
2023-05-09T03:07:02.085Z,8.70
2023-05-09T03:09:32.456Z,7.68
2023-05-09T03:12:00.529Z,9.05
2023-05-09T03:14:27.523Z,8.10
2023-05-09T03:16:55.141Z,8.57
2023-05-09T03:19:30.290Z,9.70
2023-05-09T03:21:57.379Z,8.15
2023-05-09T03:24:28.241Z,7.20
2023-05-09T03:26:55.419Z,10.65
2023-05-09T03:29:22.620Z,7.95
2023-05-09T03:31:49.799Z,9.88
2023-05-09T03:34:17.049Z,9.55
2023-05-09T03:36:45.181Z,10.60
2023-05-09T03:39:14.703Z,10.43
2023-05-09T03:41:44.947Z,9.70
2023-05-09T03:44:12.682Z,8.68
2023-05-09T03:46:39.808Z,9.93
2023-05-09T03:49:07.546Z,9.82
2023-05-09T03:51:35.562Z,9.90
2023-05-09T03:54:05.745Z,8.30
2023-05-09T03:56:33.016Z,12.32
2023-05-09T03:59:00.150Z,9.77
2023-05-09T04:01:28.181Z,10.63
2023-05-09T04:04:00.330Z,9.43
2023-05-09T04:06:30.202Z,9.80
2023-05-09T04:08:58.350Z,9.60
2023-05-09T04:11:25.785Z,11.00
2023-05-09T04:13:54.594Z,7.63
2023-05-09T04:18:54.477Z,11.77
2023-05-09T04:21:21.698Z,10.23
2023-05-09T04:23:51.587Z,10.48
2023-05-09T04:26:24.798Z,8.98
2023-05-09T04:28:54.910Z,10.45
2023-05-09T04:31:23.350Z,12.45
2023-05-09T04:33:52.465Z,11.38
2023-05-09T04:36:21.166Z,9.68
2023-05-09T04:38:48.935Z,86.10
2023-05-09T04:41:21.553Z,188.02
2023-05-09T04:43:48.810Z,100.63
2023-05-09T04:46:16.191Z,91.10
2023-05-09T04:48:43.548Z,107.38
2023-05-09T04:51:10.953Z,169.80
2023-05-09T04:53:38.221Z,16.83
2023-05-09T04:56:06.659Z,11.07
2023-05-09T04:58:38.543Z,14.13
2023-05-09T05:01:09.515Z,10.80
2023-05-09T05:03:36.711Z,12.27
2023-05-09T05:06:04.781Z,12.30
2023-05-09T05:08:32.596Z,9.68
2023-05-09T05:10:59.819Z,10.15
2023-05-09T05:13:27.473Z,9.65
2023-05-09T05:15:59.027Z,10.10
2023-05-09T05:18:26.159Z,11.77
2023-05-09T05:20:54.150Z,11.85
2023-05-09T05:23:21.873Z,13.40
2023-05-09T05:25:52.435Z,17.25
2023-05-09T05:28:19.776Z,12.30
2023-05-09T05:30:47.352Z,13.10
2023-05-09T05:33:14.528Z,12.43
2023-05-09T05:35:41.855Z,11.57
2023-05-09T05:38:09.165Z,13.10
2023-05-09T05:40:36.618Z,10.85
2023-05-09T05:43:05.969Z,13.65
2023-05-09T05:45:35.156Z,10.07
2023-05-09T05:48:05.684Z,10.50
2023-05-09T05:50:33.144Z,13.32
2023-05-09T05:53:00.280Z,15.13
2023-05-09T05:55:27.479Z,14.77
2023-05-09T05:57:54.649Z,11.43
2023-05-09T06:00:22.000Z,11.32
2023-05-09T06:02:55.987Z,13.15
2023-05-09T06:05:36.794Z,13.32
2023-05-09T06:08:05.099Z,13.88
2023-05-09T06:10:32.979Z,12.57
2023-05-09T06:13:00.552Z,14.02
2023-05-09T06:15:27.974Z,26.27
2023-05-09T06:17:55.846Z,29.23
2023-05-09T06:20:23.099Z,23.42
2023-05-09T06:22:50.324Z,24.80
2023-05-09T06:25:17.533Z,34.92
2023-05-09T06:27:45.703Z,15.43
2023-05-09T06:30:24.812Z,11.75
2023-05-09T06:32:58.376Z,14.05
2023-05-09T06:35:25.772Z,25.05
2023-05-09T06:37:52.894Z,14.70
2023-05-09T06:40:20.209Z,13.27
2023-05-09T06:42:47.345Z,14.18
2023-05-09T06:45:15.495Z,14.23
2023-05-09T06:47:42.877Z,13.18
2023-05-09T06:50:10.127Z,13.57
2023-05-09T06:52:37.318Z,11.13
2023-05-09T06:55:04.735Z,15.27
2023-05-09T06:57:32.341Z,10.68
2023-05-09T06:59:59.448Z,11.77
2023-05-09T07:02:26.601Z,9.70
2023-05-09T07:04:53.731Z,13.70
2023-05-09T07:07:20.939Z,10.95
2023-05-09T07:09:50.748Z,9.35
2023-05-09T07:12:19.945Z,11.10
2023-05-09T07:14:47.006Z,10.18
2023-05-09T07:17:22.840Z,12.40
2023-05-09T07:19:51.584Z,12.13
2023-05-09T07:22:18.798Z,8.90
2023-05-09T07:24:46.638Z,11.98
2023-05-09T07:27:14.084Z,13.43
2023-05-09T07:29:41.334Z,13.65
2023-05-09T07:32:08.479Z,12.13
2023-05-09T07:34:36.370Z,15.88
2023-05-09T07:37:03.764Z,14.15
2023-05-09T07:39:30.860Z,8.63
2023-05-09T07:41:57.990Z,9.93
2023-05-09T07:44:25.207Z,11.43
2023-05-09T07:46:52.253Z,12.95
2023-05-09T07:49:19.267Z,10.43
2023-05-09T07:51:46.315Z,14.25
2023-05-09T07:54:13.725Z,12.32
2023-05-09T07:56:41.042Z,11.70
2023-05-09T07:59:08.224Z,10.80
2023-05-09T08:01:35.286Z,10.07
2023-05-09T08:04:02.617Z,14.35
2023-05-09T08:06:29.659Z,9.73
2023-05-09T08:08:56.821Z,13.55
2023-05-09T08:11:24.180Z,13.73
2023-05-09T08:13:51.411Z,10.35
2023-05-09T08:16:18.694Z,11.00
2023-05-09T08:18:46.234Z,12.73
2023-05-09T08:21:13.579Z,11.25
2023-05-09T08:23:41.435Z,12.38
2023-05-09T08:26:08.527Z,17.75
2023-05-09T08:28:35.716Z,11.93
2023-05-09T08:31:03.100Z,11.35
2023-05-09T08:33:30.669Z,14.18
2023-05-09T08:35:57.984Z,11.38
2023-05-09T08:38:25.072Z,13.18
2023-05-09T08:40:52.308Z,13.57
2023-05-09T08:43:22.146Z,12.43
2023-05-09T08:45:54.391Z,11.32
2023-05-09T08:48:22.726Z,12.65
2023-05-09T08:50:50.529Z,11.70
2023-05-09T08:53:17.970Z,20.40
2023-05-09T08:55:45.603Z,11.02
2023-05-09T08:58:13.831Z,16.38
2023-05-09T09:00:41.738Z,13.93
2023-05-09T09:03:08.864Z,9.45
2023-05-09T09:05:41.682Z,11.00
2023-05-09T09:08:11.152Z,12.55
2023-05-09T09:10:42.386Z,10.45
2023-05-09T09:13:12.589Z,12.30
2023-05-09T09:15:43.639Z,13.88
2023-05-09T09:18:22.203Z,16.27
2023-05-09T09:21:05.957Z,13.20
2023-05-09T09:23:33.695Z,10.95
2023-05-09T09:26:07.237Z,13.18
2023-05-09T09:31:01.990Z,12.13
2023-05-09T09:33:29.718Z,17.15
2023-05-09T09:35:57.316Z,12.45
2023-05-09T09:38:25.110Z,9.85
2023-05-09T09:40:52.141Z,8.93
2023-05-09T09:43:19.417Z,12.98
2023-05-09T09:45:51.455Z,13.05
2023-05-09T09:48:18.625Z,11.35
2023-05-09T09:50:47.946Z,10.98
2023-05-09T09:53:14.913Z,13.43
2023-05-09T09:55:50.988Z,10.57
2023-05-09T09:58:21.936Z,12.13
2023-05-09T10:01:06.359Z,9.93
2023-05-09T10:03:42.272Z,11.73
2023-05-09T10:06:14.285Z,12.15
2023-05-09T10:08:43.764Z,11.57
2023-05-09T10:11:11.390Z,16.83
2023-05-09T10:13:39.442Z,9.45
2023-05-09T10:16:09.021Z,12.68
2023-05-09T10:18:36.539Z,11.20
2023-05-09T10:21:05.509Z,11.98
2023-05-09T10:23:38.489Z,10.82
2023-05-09T10:26:27.658Z,12.65
2023-05-09T10:29:01.610Z,13.48
2023-05-09T10:31:32.615Z,11.48
2023-05-09T10:34:05.457Z,10.70
2023-05-09T10:36:33.166Z,12.10
2023-05-09T10:39:01.269Z,10.57
2023-05-09T10:41:29.234Z,12.75
2023-05-09T10:43:58.330Z,8.98
2023-05-09T10:46:27.575Z,9.43
2023-05-09T10:48:55.612Z,9.55
2023-05-09T10:51:24.720Z,10.18
2023-05-09T10:53:51.897Z,9.98
2023-05-09T10:56:33.607Z,12.20
2023-05-09T10:59:00.946Z,11.30
2023-05-09T11:01:39.722Z,11.23
2023-05-09T11:04:12.908Z,8.30
2023-05-09T11:06:51.362Z,11.45
2023-05-09T11:09:39.266Z,10.55
2023-05-09T11:12:13.523Z,8.60
2023-05-09T11:14:47.377Z,10.55
2023-05-09T11:17:24.599Z,13.40
2023-05-09T11:19:51.852Z,8.32
2023-05-09T11:22:37.955Z,8.68
2023-05-09T11:25:10.356Z,8.55
2023-05-09T11:27:39.826Z,14.65
2023-05-09T11:30:09.051Z,13.02
2023-05-09T11:32:48.099Z,13.68
2023-05-09T11:35:21.071Z,12.55
2023-05-09T11:38:06.141Z,10.68
2023-05-09T11:40:34.977Z,9.05
2023-05-09T11:43:02.221Z,10.23
2023-05-09T11:45:31.631Z,10.23
2023-05-09T11:48:00.673Z,9.32
2023-05-09T11:50:28.012Z,9.68
2023-05-09T11:52:55.159Z,10.57
2023-05-09T11:55:22.995Z,9.40
2023-05-09T11:57:53.025Z,9.13
2023-05-09T12:00:24.907Z,9.40
2023-05-09T12:02:53.467Z,9.48
2023-05-09T12:05:22.989Z,207.23
2023-05-09T12:07:51.052Z,68.45
2023-05-09T12:10:23.362Z,28.55
2023-05-09T12:12:52.276Z,20.25
2023-05-09T12:15:21.514Z,20.85
2023-05-09T12:18:01.303Z,14.27
2023-05-09T12:20:28.401Z,15.85
2023-05-09T12:22:56.059Z,20.77
2023-05-09T12:25:23.114Z,9.18
2023-05-09T12:27:50.427Z,27.85
2023-05-09T12:30:18.785Z,46.92
2023-05-09T12:32:46.827Z,15.27
2023-05-09T12:35:14.822Z,39.50
2023-05-09T12:37:56.365Z,56.65
2023-05-09T12:40:23.633Z,163.48
2023-05-09T12:42:53.903Z,158.48
2023-05-09T12:45:21.218Z,121.32
2023-05-09T12:47:52.206Z,51.95
2023-05-09T12:50:19.629Z,39.15
2023-05-09T12:53:02.713Z,36.85
2023-05-09T12:58:03.616Z,37.55
2023-05-09T13:00:43.481Z,52.63
2023-05-09T13:03:25.556Z,17.75
2023-05-09T13:06:02.472Z,41.85
2023-05-09T13:08:29.828Z,10.60
2023-05-09T13:11:07.742Z,21.02
2023-05-09T13:13:42.671Z,26.10
2023-05-09T13:16:11.130Z,37.55
2023-05-09T13:18:39.313Z,38.03
2023-05-09T13:21:06.456Z,40.15
2023-05-09T13:23:33.551Z,55.25
2023-05-09T13:26:00.526Z,38.17
2023-05-09T13:28:27.705Z,135.18
2023-05-09T13:30:54.843Z,160.85
2023-05-09T13:33:25.869Z,112.75
2023-05-09T13:35:53.859Z,56.83
2023-05-09T13:38:21.025Z,89.13
2023-05-09T13:40:48.052Z,58.55
2023-05-09T13:43:15.079Z,11.88
2023-05-09T13:45:42.403Z,234.45
2023-05-09T13:48:09.724Z,308.92
2023-05-09T13:50:36.779Z,111.85
2023-05-09T13:53:03.843Z,166.52
2023-05-09T13:55:31.106Z,474.50
2023-05-09T13:57:58.262Z,416.15
2023-05-09T14:00:26.740Z,136.10
2023-05-09T14:02:54.209Z,180.52
2023-05-09T14:05:21.700Z,242.68
2023-05-09T14:07:48.968Z,306.08
2023-05-09T14:10:17.651Z,103.18
2023-05-09T14:12:46.757Z,78.72
2023-05-09T14:15:14.181Z,130.48
2023-05-09T14:17:41.386Z,35.95
2023-05-09T14:20:09.068Z,24.95
2023-05-09T14:22:36.181Z,54.75
2023-05-09T14:25:03.279Z,26.95
2023-05-09T14:27:30.431Z,21.40
2023-05-09T14:29:57.641Z,15.52
2023-05-09T14:32:25.436Z,18.50
2023-05-09T14:34:52.556Z,12.93
2023-05-09T14:37:19.659Z,11.55
2023-05-09T14:39:46.950Z,15.35
2023-05-09T14:42:14.323Z,10.95
2023-05-09T14:44:41.974Z,14.25
2023-05-09T14:47:09.972Z,14.18
2023-05-09T14:49:38.820Z,8.68
2023-05-09T14:52:06.175Z,10.32
2023-05-09T14:54:33.245Z,14.77
2023-05-09T14:57:02.092Z,8.55
2023-05-09T14:59:29.684Z,9.93
2023-05-09T15:01:56.875Z,11.50
2023-05-09T15:04:28.283Z,10.57
2023-05-09T15:06:55.527Z,12.48
2023-05-09T15:09:22.742Z,12.95
2023-05-09T15:11:49.852Z,12.45
2023-05-09T15:14:17.108Z,9.43
2023-05-09T15:16:44.572Z,10.05
2023-05-09T15:19:11.655Z,10.45
2023-05-09T15:21:38.743Z,13.10
2023-05-09T15:24:06.292Z,15.95
2023-05-09T15:26:33.419Z,10.68
2023-05-09T15:29:00.460Z,11.60
2023-05-09T15:31:33.384Z,11.73
2023-05-09T15:34:01.169Z,8.18
2023-05-09T15:36:32.243Z,10.25
2023-05-09T15:38:59.581Z,9.98
2023-05-09T15:41:27.320Z,11.45
2023-05-09T15:43:54.350Z,11.20
2023-05-09T15:46:21.991Z,11.88
2023-05-09T15:48:49.175Z,12.93
2023-05-09T15:51:16.450Z,10.63
2023-05-09T15:53:43.598Z,10.65
2023-05-09T15:56:10.716Z,15.85
2023-05-09T15:58:37.797Z,12.93
2023-05-09T16:01:06.304Z,10.75
2023-05-09T16:03:35.021Z,9.82
2023-05-09T16:06:02.453Z,164.65
2023-05-09T16:08:29.584Z,26.05
2023-05-09T16:10:56.719Z,13.35
2023-05-09T16:13:24.027Z,14.23
2023-05-09T16:15:51.356Z,12.90
2023-05-09T16:18:18.904Z,17.42
2023-05-09T16:20:46.110Z,13.32
2023-05-09T16:23:13.346Z,14.40
2023-05-09T16:25:40.553Z,12.57
2023-05-09T16:28:08.565Z,10.90
2023-05-09T16:30:36.297Z,14.75
2023-05-09T16:33:03.968Z,12.55
2023-05-09T16:35:31.175Z,11.38
2023-05-09T16:37:58.394Z,11.00
2023-05-09T16:40:25.477Z,14.93
2023-05-09T16:42:53.842Z,15.82
2023-05-09T16:45:21.152Z,13.43
2023-05-09T16:47:48.652Z,11.40
2023-05-09T16:50:16.260Z,12.45
2023-05-09T16:52:43.572Z,13.90
2023-05-09T16:55:10.688Z,12.25
2023-05-09T16:57:37.798Z,17.20
2023-05-09T17:00:07.940Z,12.93
2023-05-09T17:02:36.370Z,15.20
2023-05-09T17:05:04.686Z,15.18
2023-05-09T17:07:32.314Z,12.30
2023-05-09T17:09:59.704Z,14.90
2023-05-09T17:12:27.803Z,11.43
2023-05-09T17:14:54.888Z,13.25
2023-05-09T17:17:22.004Z,17.63
2023-05-09T17:19:49.161Z,16.83
2023-05-09T17:22:16.217Z,14.35
2023-05-09T17:24:43.267Z,16.67
2023-05-09T17:27:11.574Z,18.77
2023-05-09T17:29:38.658Z,113.53
2023-05-09T17:32:06.772Z,181.90
2023-05-09T17:34:34.051Z,250.00
2023-05-09T17:37:02.429Z,32.95
2023-05-09T17:39:29.824Z,12.95
2023-05-09T17:41:56.929Z,16.77
2023-05-09T17:44:24.247Z,17.83
2023-05-09T17:46:51.397Z,17.77
2023-05-09T17:49:18.467Z,15.52
2023-05-09T17:51:45.571Z,23.98
2023-05-09T17:54:13.133Z,22.30
2023-05-09T17:56:40.279Z,19.02
2023-05-09T17:59:07.996Z,23.38
2023-05-09T18:01:35.245Z,25.08
2023-05-09T18:04:02.864Z,28.25
2023-05-09T18:06:30.014Z,22.33
2023-05-09T18:08:57.277Z,26.08
2023-05-09T18:11:24.710Z,25.50
2023-05-09T18:13:51.920Z,24.33
2023-05-09T18:16:19.134Z,20.33
2023-05-09T18:18:46.455Z,21.25
2023-05-09T18:21:13.632Z,17.85
2023-05-09T18:23:41.559Z,49.45
2023-05-09T18:26:08.783Z,266.08
2023-05-09T18:28:41.622Z,333.92
2023-05-09T18:31:11.896Z,28.38
2023-05-09T18:33:39.462Z,20.50
2023-05-09T18:36:09.632Z,17.45
2023-05-09T18:38:38.704Z,16.60
2023-05-09T18:41:08.710Z,14.95
2023-05-09T18:43:38.762Z,19.00
2023-05-09T18:46:06.011Z,13.93
2023-05-09T18:48:33.626Z,20.67
2023-05-09T18:51:00.880Z,18.65
2023-05-09T18:53:29.035Z,19.77
2023-05-09T18:55:58.832Z,19.05
2023-05-09T18:58:25.945Z,21.60
2023-05-09T19:00:53.266Z,28.10
2023-05-09T19:03:21.106Z,25.70
2023-05-09T19:05:48.129Z,47.67
2023-05-09T19:08:15.326Z,40.72
2023-05-09T19:10:42.704Z,30.67
2023-05-09T19:13:09.970Z,486.58
2023-05-09T19:15:37.484Z,207.10
2023-05-09T19:18:05.213Z,48.95
2023-05-09T19:20:32.400Z,41.25
2023-05-09T19:22:59.520Z,38.50
2023-05-09T19:25:26.912Z,45.90
2023-05-09T19:27:54.103Z,43.05
2023-05-09T19:30:21.259Z,47.75
2023-05-09T19:32:48.643Z,38.88
2023-05-09T19:35:16.238Z,34.90
2023-05-09T19:37:43.425Z,34.70
2023-05-09T19:40:11.482Z,30.92
2023-05-09T19:42:38.529Z,37.72
2023-05-09T19:45:06.182Z,34.75
2023-05-09T19:47:33.299Z,33.30
2023-05-09T19:50:02.221Z,35.83
2023-05-09T19:52:30.050Z,40.90
2023-05-09T19:54:57.195Z,34.35
2023-05-09T19:57:24.299Z,33.00
2023-05-09T19:59:52.255Z,31.88
2023-05-09T20:02:19.257Z,28.83
2023-05-09T20:04:50.061Z,29.52
2023-05-09T20:07:17.715Z,25.58
2023-05-09T20:09:45.937Z,29.30
2023-05-09T20:12:13.921Z,28.98
2023-05-09T20:14:41.061Z,23.90
2023-05-09T20:17:08.398Z,24.70
2023-05-09T20:19:35.534Z,23.40
2023-05-09T20:22:03.807Z,19.98
2023-05-09T20:24:33.617Z,23.15
2023-05-09T20:27:02.386Z,21.52
2023-05-09T20:29:29.583Z,20.85
2023-05-09T20:31:56.647Z,19.00
2023-05-09T20:34:24.762Z,20.67
2023-05-09T20:36:55.201Z,20.40
2023-05-09T20:39:23.130Z,19.42
2023-05-09T20:41:51.476Z,22.65
2023-05-09T20:44:19.227Z,18.65
2023-05-09T20:46:46.472Z,21.20
2023-05-09T20:49:13.862Z,15.02
2023-05-09T20:51:40.963Z,20.55
2023-05-09T20:54:08.200Z,13.85
2023-05-09T20:56:35.734Z,14.57
2023-05-09T20:59:04.436Z,14.23
2023-05-09T21:01:34.438Z,17.65
2023-05-09T21:04:01.478Z,13.55
2023-05-09T21:06:28.607Z,19.38
2023-05-09T21:08:55.640Z,21.90
2023-05-09T21:11:22.674Z,20.65
2023-05-09T21:13:50.346Z,19.92
2023-05-09T21:16:17.495Z,21.08
2023-05-09T21:18:44.639Z,19.92
2023-05-09T21:21:11.776Z,20.52
2023-05-09T21:23:38.826Z,17.85
2023-05-09T21:26:05.920Z,24.02
2023-05-09T21:28:33.063Z,19.25
2023-05-09T21:31:01.757Z,19.63
2023-05-09T21:33:29.576Z,20.70
2023-05-09T21:35:57.205Z,20.75
2023-05-09T21:38:24.335Z,21.92
2023-05-09T21:40:51.578Z,20.20
2023-05-09T21:43:19.075Z,26.50
2023-05-09T21:45:46.342Z,21.92
2023-05-09T21:48:13.767Z,25.52
2023-05-09T21:50:44.848Z,18.92
2023-05-09T21:53:12.736Z,19.42
2023-05-09T21:55:39.976Z,25.42
2023-05-09T21:58:07.058Z,24.65
2023-05-09T22:00:34.063Z,23.55
2023-05-09T22:03:01.290Z,21.88
2023-05-09T22:05:28.405Z,22.42
2023-05-09T22:07:55.524Z,21.17
2023-05-09T22:10:22.661Z,22.52
2023-05-09T22:12:49.821Z,21.13
2023-05-09T22:15:17.061Z,19.13
2023-05-09T22:17:44.773Z,19.95
2023-05-09T22:20:12.386Z,21.77
2023-05-09T22:22:39.425Z,22.83
2023-05-09T22:25:06.955Z,22.27
2023-05-09T22:27:34.052Z,22.75
2023-05-09T22:30:01.770Z,22.40
2023-05-09T22:32:28.901Z,19.50
2023-05-09T22:34:55.966Z,20.55
2023-05-09T22:37:23.000Z,18.20
2023-05-09T22:39:50.139Z,17.92
2023-05-09T22:42:17.151Z,22.88
2023-05-09T22:44:44.181Z,17.15
2023-05-09T22:47:11.268Z,16.67
2023-05-09T22:49:38.306Z,20.58
2023-05-09T22:52:05.452Z,18.13
2023-05-09T22:54:32.446Z,19.30
2023-05-09T22:56:59.502Z,18.33
2023-05-09T22:59:27.134Z,15.05
2023-05-09T23:01:54.465Z,15.23
2023-05-09T23:04:21.917Z,17.92
2023-05-09T23:06:48.950Z,15.82
2023-05-09T23:09:16.250Z,16.23
2023-05-09T23:11:43.292Z,16.67
2023-05-09T23:14:10.598Z,17.77
2023-05-09T23:16:37.676Z,16.58
2023-05-09T23:19:04.737Z,18.38
2023-05-09T23:21:31.795Z,21.00
2023-05-09T23:23:58.878Z,17.17
2023-05-09T23:26:25.883Z,17.70
2023-05-09T23:28:55.228Z,17.90
2023-05-09T23:31:22.445Z,15.35
2023-05-09T23:33:49.727Z,16.45
2023-05-09T23:36:16.943Z,16.83
2023-05-09T23:38:44.008Z,14.75
2023-05-09T23:41:11.100Z,14.35
2023-05-09T23:43:38.229Z,13.43
2023-05-09T23:46:05.400Z,14.70
2023-05-09T23:48:32.590Z,13.52
2023-05-09T23:50:59.584Z,18.30
2023-05-09T23:53:26.706Z,13.57
2023-05-09T23:55:53.731Z,15.45
2023-05-09T23:58:21.293Z,16.80
